sensor_id;sensor_type;location;lat;lon;timestamp;temperature;humidity
64226;DHT22;50545;56.064;26.178;2024-03-23T00:54:05;6.40;99.90
64226;DHT22;50545;56.064;26.178;2024-03-23T00:56:31;6.40;99.90
64226;DHT22;50545;56.064;26.178;2024-03-23T00:58:57;6.40;99.90
64226;DHT22;50545;56.064;26.178;2024-03-23T01:01:24;6.40;99.90
64226;DHT22;50545;56.064;26.178;2024-03-23T01:03:50;6.40;99.90
64226;DHT22;50545;56.064;26.178;2024-03-23T01:06:16;6.40;99.90
64226;DHT22;50545;56.064;26.178;2024-03-23T01:08:42;6.50;99.90
64226;DHT22;50545;56.064;26.178;2024-03-23T01:11:09;6.50;99.90
64226;DHT22;50545;56.064;26.178;2024-03-23T01:13:35;6.50;99.90
64226;DHT22;50545;56.064;26.178;2024-03-23T01:16:02;6.50;99.90
64226;DHT22;50545;56.064;26.178;2024-03-23T01:18:28;6.50;99.90
64226;DHT22;50545;56.064;26.178;2024-03-23T01:20:55;6.50;99.90
64226;DHT22;50545;56.064;26.178;2024-03-23T01:23:21;6.50;99.90
64226;DHT22;50545;56.064;26.178;2024-03-23T01:25:54;6.50;99.90
64226;DHT22;50545;56.064;26.178;2024-03-23T01:28:21;6.50;99.90
64226;DHT22;50545;56.064;26.178;2024-03-23T01:30:48;6.50;99.90
64226;DHT22;50545;56.064;26.178;2024-03-23T01:33:14;6.50;99.90
64226;DHT22;50545;56.064;26.178;2024-03-23T01:35:41;6.60;99.90
64226;DHT22;50545;56.064;26.178;2024-03-23T01:38:07;6.60;99.90
64226;DHT22;50545;56.064;26.178;2024-03-23T01:40:33;6.60;99.90
64226;DHT22;50545;56.064;26.178;2024-03-23T01:43:08;6.60;99.90
64226;DHT22;50545;56.064;26.178;2024-03-23T01:45:35;6.60;99.90
64226;DHT22;50545;56.064;26.178;2024-03-23T01:48:02;6.60;99.90
64226;DHT22;50545;56.064;26.178;2024-03-23T01:50:30;6.60;99.90
64226;DHT22;50545;56.064;26.178;2024-03-23T01:53:00;6.70;99.90
64226;DHT22;50545;56.064;26.178;2024-03-23T01:55:26;6.60;99.90
64226;DHT22;50545;56.064;26.178;2024-03-23T01:57:53;6.70;99.90
64226;DHT22;50545;56.064;26.178;2024-03-23T02:00:22;6.70;99.90
64226;DHT22;50545;56.064;26.178;2024-03-23T02:02:49;6.70;99.90
64226;DHT22;50545;56.064;26.178;2024-03-23T02:05:15;6.70;99.90
64226;DHT22;50545;56.064;26.178;2024-03-23T02:07:42;6.70;99.90
64226;DHT22;50545;56.064;26.178;2024-03-23T02:10:11;6.70;99.90
64226;DHT22;50545;56.064;26.178;2024-03-23T02:12:41;6.80;99.90
64226;DHT22;50545;56.064;26.178;2024-03-23T02:15:07;6.80;99.90
64226;DHT22;50545;56.064;26.178;2024-03-23T02:17:36;6.80;99.90
64226;DHT22;50545;56.064;26.178;2024-03-23T02:20:03;6.80;99.90
64226;DHT22;50545;56.064;26.178;2024-03-23T02:22:38;6.80;99.90
64226;DHT22;50545;56.064;26.178;2024-03-23T02:25:05;6.80;99.90
64226;DHT22;50545;56.064;26.178;2024-03-23T02:27:32;6.80;99.90
64226;DHT22;50545;56.064;26.178;2024-03-23T02:29:59;6.80;99.90
64226;DHT22;50545;56.064;26.178;2024-03-23T02:32:25;6.90;99.90
64226;DHT22;50545;56.064;26.178;2024-03-23T02:34:52;6.90;99.90
64226;DHT22;50545;56.064;26.178;2024-03-23T02:37:18;6.90;99.90
64226;DHT22;50545;56.064;26.178;2024-03-23T02:39:44;6.90;99.90
64226;DHT22;50545;56.064;26.178;2024-03-23T02:42:10;6.90;99.90
64226;DHT22;50545;56.064;26.178;2024-03-23T02:44:37;6.90;99.90
64226;DHT22;50545;56.064;26.178;2024-03-23T02:47:03;6.90;99.90
64226;DHT22;50545;56.064;26.178;2024-03-23T02:49:29;6.80;99.90
64226;DHT22;50545;56.064;26.178;2024-03-23T02:51:56;6.80;99.90
64226;DHT22;50545;56.064;26.178;2024-03-23T02:54:22;6.80;99.90
64226;DHT22;50545;56.064;26.178;2024-03-23T02:56:48;6.80;99.90
64226;DHT22;50545;56.064;26.178;2024-03-23T02:59:14;6.70;99.90
64226;DHT22;50545;56.064;26.178;2024-03-23T03:01:41;6.70;99.90
64226;DHT22;50545;56.064;26.178;2024-03-23T03:04:07;6.70;99.90
64226;DHT22;50545;56.064;26.178;2024-03-23T03:06:33;6.70;99.90
64226;DHT22;50545;56.064;26.178;2024-03-23T03:09:00;6.60;99.90
64226;DHT22;50545;56.064;26.178;2024-03-23T03:11:26;6.60;99.90
64226;DHT22;50545;56.064;26.178;2024-03-23T03:13:52;6.60;99.90
64226;DHT22;50545;56.064;26.178;2024-03-23T03:16:18;6.60;99.90
64226;DHT22;50545;56.064;26.178;2024-03-23T03:18:45;6.60;99.90
64226;DHT22;50545;56.064;26.178;2024-03-23T03:21:12;6.60;99.90
64226;DHT22;50545;56.064;26.178;2024-03-23T03:23:39;6.50;99.90
64226;DHT22;50545;56.064;26.178;2024-03-23T03:26:06;6.50;99.90
64226;DHT22;50545;56.064;26.178;2024-03-23T03:28:33;6.40;99.90
64226;DHT22;50545;56.064;26.178;2024-03-23T03:31:00;6.40;99.90
64226;DHT22;50545;56.064;26.178;2024-03-23T03:33:29;6.40;99.90
64226;DHT22;50545;56.064;26.178;2024-03-23T03:35:55;6.40;99.90
64226;DHT22;50545;56.064;26.178;2024-03-23T03:38:22;6.40;99.90
64226;DHT22;50545;56.064;26.178;2024-03-23T03:40:48;6.40;99.90
64226;DHT22;50545;56.064;26.178;2024-03-23T03:43:14;6.40;99.90
64226;DHT22;50545;56.064;26.178;2024-03-23T03:45:40;6.30;99.90
64226;DHT22;50545;56.064;26.178;2024-03-23T03:48:07;6.20;99.90
64226;DHT22;50545;56.064;26.178;2024-03-23T03:50:34;6.20;99.90
64226;DHT22;50545;56.064;26.178;2024-03-23T03:53:00;6.20;99.90
64226;DHT22;50545;56.064;26.178;2024-03-23T03:55:26;6.10;99.90
64226;DHT22;50545;56.064;26.178;2024-03-23T03:57:53;6.10;99.90
64226;DHT22;50545;56.064;26.178;2024-03-23T04:00:20;6.10;99.90
64226;DHT22;50545;56.064;26.178;2024-03-23T04:02:46;6.10;99.90
64226;DHT22;50545;56.064;26.178;2024-03-23T04:05:13;6.00;99.90
64226;DHT22;50545;56.064;26.178;2024-03-23T04:07:39;6.00;99.90
64226;DHT22;50545;56.064;26.178;2024-03-23T04:10:06;5.90;99.90
64226;DHT22;50545;56.064;26.178;2024-03-23T04:12:35;5.90;99.90
64226;DHT22;50545;56.064;26.178;2024-03-23T04:15:01;5.80;99.90
64226;DHT22;50545;56.064;26.178;2024-03-23T04:17:30;5.80;99.90
64226;DHT22;50545;56.064;26.178;2024-03-23T04:20:01;5.80;99.90
64226;DHT22;50545;56.064;26.178;2024-03-23T04:22:30;5.80;99.90
64226;DHT22;50545;56.064;26.178;2024-03-23T04:24:57;5.80;99.90
64226;DHT22;50545;56.064;26.178;2024-03-23T04:27:23;5.80;99.90
64226;DHT22;50545;56.064;26.178;2024-03-23T04:29:50;5.80;99.90
64226;DHT22;50545;56.064;26.178;2024-03-23T04:32:17;5.80;99.90
64226;DHT22;50545;56.064;26.178;2024-03-23T04:34:44;5.80;99.90
64226;DHT22;50545;56.064;26.178;2024-03-23T04:37:11;5.90;99.90
64226;DHT22;50545;56.064;26.178;2024-03-23T04:39:38;5.90;99.90
64226;DHT22;50545;56.064;26.178;2024-03-23T04:42:05;5.90;99.90
64226;DHT22;50545;56.064;26.178;2024-03-23T04:44:31;6.00;99.90
64226;DHT22;50545;56.064;26.178;2024-03-23T04:46:58;5.90;99.90
64226;DHT22;50545;56.064;26.178;2024-03-23T04:49:24;5.90;99.90
64226;DHT22;50545;56.064;26.178;2024-03-23T04:51:50;6.00;99.90
64226;DHT22;50545;56.064;26.178;2024-03-23T04:54:17;6.00;99.90
64226;DHT22;50545;56.064;26.178;2024-03-23T04:56:43;6.00;99.90
64226;DHT22;50545;56.064;26.178;2024-03-23T04:59:09;6.00;99.90
64226;DHT22;50545;56.064;26.178;2024-03-23T05:01:35;6.00;99.90
64226;DHT22;50545;56.064;26.178;2024-03-23T05:04:04;6.10;99.90
64226;DHT22;50545;56.064;26.178;2024-03-23T05:06:31;6.10;99.90
64226;DHT22;50545;56.064;26.178;2024-03-23T05:08:57;6.10;99.90
64226;DHT22;50545;56.064;26.178;2024-03-23T05:11:23;6.10;99.90
64226;DHT22;50545;56.064;26.178;2024-03-23T05:13:49;6.10;99.90
64226;DHT22;50545;56.064;26.178;2024-03-23T05:16:16;6.10;99.90
64226;DHT22;50545;56.064;26.178;2024-03-23T05:18:42;6.10;99.90
64226;DHT22;50545;56.064;26.178;2024-03-23T05:21:08;6.00;99.90
64226;DHT22;50545;56.064;26.178;2024-03-23T05:23:34;6.00;99.90
64226;DHT22;50545;56.064;26.178;2024-03-23T05:26:01;5.90;99.90
64226;DHT22;50545;56.064;26.178;2024-03-23T05:28:27;5.90;99.90
64226;DHT22;50545;56.064;26.178;2024-03-23T05:30:54;5.80;99.90
64226;DHT22;50545;56.064;26.178;2024-03-23T05:33:21;5.80;99.90
64226;DHT22;50545;56.064;26.178;2024-03-23T05:35:55;5.80;99.90
64226;DHT22;50545;56.064;26.178;2024-03-23T05:38:21;5.80;99.90
64226;DHT22;50545;56.064;26.178;2024-03-23T05:40:58;5.80;99.90
64226;DHT22;50545;56.064;26.178;2024-03-23T05:43:25;5.80;99.90
64226;DHT22;50545;56.064;26.178;2024-03-23T05:48:21;5.80;99.90
64226;DHT22;50545;56.064;26.178;2024-03-23T05:50:48;5.80;99.90
64226;DHT22;50545;56.064;26.178;2024-03-23T05:53:15;5.80;99.90
64226;DHT22;50545;56.064;26.178;2024-03-23T05:55:42;5.80;99.90
64226;DHT22;50545;56.064;26.178;2024-03-23T05:58:08;5.80;99.90
64226;DHT22;50545;56.064;26.178;2024-03-23T06:00:34;5.80;99.90
64226;DHT22;50545;56.064;26.178;2024-03-23T06:03:01;5.80;99.90
64226;DHT22;50545;56.064;26.178;2024-03-23T06:05:27;5.80;99.90
64226;DHT22;50545;56.064;26.178;2024-03-23T06:07:53;5.80;99.90
64226;DHT22;50545;56.064;26.178;2024-03-23T06:10:19;5.80;99.90
64226;DHT22;50545;56.064;26.178;2024-03-23T06:12:46;5.80;99.90
64226;DHT22;50545;56.064;26.178;2024-03-23T06:15:12;5.80;99.90
64226;DHT22;50545;56.064;26.178;2024-03-23T06:17:39;5.80;99.90
64226;DHT22;50545;56.064;26.178;2024-03-23T06:20:05;5.80;99.90
64226;DHT22;50545;56.064;26.178;2024-03-23T06:22:32;5.80;99.90
64226;DHT22;50545;56.064;26.178;2024-03-23T06:24:59;5.80;99.90
64226;DHT22;50545;56.064;26.178;2024-03-23T06:27:26;5.80;99.90
64226;DHT22;50545;56.064;26.178;2024-03-23T06:29:52;5.90;99.90
64226;DHT22;50545;56.064;26.178;2024-03-23T06:32:18;5.90;99.90
64226;DHT22;50545;56.064;26.178;2024-03-23T06:34:45;5.90;99.90
64226;DHT22;50545;56.064;26.178;2024-03-23T06:37:11;5.90;99.90
64226;DHT22;50545;56.064;26.178;2024-03-23T06:39:38;5.90;99.90
64226;DHT22;50545;56.064;26.178;2024-03-23T06:42:05;6.00;99.90
64226;DHT22;50545;56.064;26.178;2024-03-23T06:44:31;5.90;99.90
64226;DHT22;50545;56.064;26.178;2024-03-23T06:46:58;6.00;99.90
64226;DHT22;50545;56.064;26.178;2024-03-23T06:49:24;5.90;99.90
64226;DHT22;50545;56.064;26.178;2024-03-23T06:51:51;5.90;99.90
64226;DHT22;50545;56.064;26.178;2024-03-23T06:54:19;5.90;99.90
64226;DHT22;50545;56.064;26.178;2024-03-23T06:56:45;6.00;99.90
64226;DHT22;50545;56.064;26.178;2024-03-23T06:59:12;6.00;99.90
64226;DHT22;50545;56.064;26.178;2024-03-23T07:01:38;6.10;99.90
64226;DHT22;50545;56.064;26.178;2024-03-23T07:04:05;6.20;99.90
64226;DHT22;50545;56.064;26.178;2024-03-23T07:06:31;6.30;99.90
64226;DHT22;50545;56.064;26.178;2024-03-23T07:08:58;6.30;99.90
64226;DHT22;50545;56.064;26.178;2024-03-23T07:11:24;6.40;99.90
64226;DHT22;50545;56.064;26.178;2024-03-23T07:13:52;6.40;99.90
64226;DHT22;50545;56.064;26.178;2024-03-23T07:16:20;6.40;99.90
64226;DHT22;50545;56.064;26.178;2024-03-23T07:18:46;6.40;99.90
64226;DHT22;50545;56.064;26.178;2024-03-23T07:21:14;6.50;99.90
64226;DHT22;50545;56.064;26.178;2024-03-23T07:23:42;6.50;99.90
64226;DHT22;50545;56.064;26.178;2024-03-23T07:26:12;6.40;99.90
64226;DHT22;50545;56.064;26.178;2024-03-23T07:28:39;6.40;99.90
64226;DHT22;50545;56.064;26.178;2024-03-23T07:31:13;6.40;99.90
64226;DHT22;50545;56.064;26.178;2024-03-23T07:33:48;6.40;99.90
64226;DHT22;50545;56.064;26.178;2024-03-23T07:36:15;6.40;99.90
64226;DHT22;50545;56.064;26.178;2024-03-23T07:38:41;6.50;99.90
64226;DHT22;50545;56.064;26.178;2024-03-23T07:41:14;6.60;99.90
64226;DHT22;50545;56.064;26.178;2024-03-23T07:43:41;6.60;99.90
64226;DHT22;50545;56.064;26.178;2024-03-23T07:46:07;6.70;99.90
64226;DHT22;50545;56.064;26.178;2024-03-23T07:48:33;6.80;99.90
64226;DHT22;50545;56.064;26.178;2024-03-23T07:51:08;6.70;99.90
64226;DHT22;50545;56.064;26.178;2024-03-23T07:53:36;6.70;99.90
64226;DHT22;50545;56.064;26.178;2024-03-23T07:56:07;6.50;99.90
64226;DHT22;50545;56.064;26.178;2024-03-23T07:58:34;6.40;99.90
64226;DHT22;50545;56.064;26.178;2024-03-23T08:01:11;6.40;99.90
64226;DHT22;50545;56.064;26.178;2024-03-23T08:03:39;6.40;99.90
64226;DHT22;50545;56.064;26.178;2024-03-23T08:06:14;6.60;99.90
64226;DHT22;50545;56.064;26.178;2024-03-23T08:08:43;6.60;99.50
64226;DHT22;50545;56.064;26.178;2024-03-23T08:11:09;6.70;99.90
64226;DHT22;50545;56.064;26.178;2024-03-23T08:13:37;6.70;98.70
64226;DHT22;50545;56.064;26.178;2024-03-23T08:16:04;6.80;99.60
64226;DHT22;50545;56.064;26.178;2024-03-23T08:18:31;6.90;98.30
64226;DHT22;50545;56.064;26.178;2024-03-23T08:21:07;6.90;98.70
64226;DHT22;50545;56.064;26.178;2024-03-23T08:23:34;7.00;98.30
64226;DHT22;50545;56.064;26.178;2024-03-23T08:26:06;7.00;97.50
64226;DHT22;50545;56.064;26.178;2024-03-23T08:28:32;6.90;97.60
64226;DHT22;50545;56.064;26.178;2024-03-23T08:31:08;7.00;98.90
64226;DHT22;50545;56.064;26.178;2024-03-23T08:33:35;7.10;97.50
64226;DHT22;50545;56.064;26.178;2024-03-23T08:36:09;7.00;96.50
64226;DHT22;50545;56.064;26.178;2024-03-23T08:38:35;7.10;96.90
64226;DHT22;50545;56.064;26.178;2024-03-23T08:41:06;7.20;96.50
64226;DHT22;50545;56.064;26.178;2024-03-23T08:43:36;7.30;95.70
64226;DHT22;50545;56.064;26.178;2024-03-23T08:46:06;7.40;94.50
64226;DHT22;50545;56.064;26.178;2024-03-23T08:48:35;7.50;94.60
64226;DHT22;50545;56.064;26.178;2024-03-23T08:51:05;7.50;94.20
64226;DHT22;50545;56.064;26.178;2024-03-23T08:53:32;7.50;93.80
64226;DHT22;50545;56.064;26.178;2024-03-23T08:56:00;7.60;94.20
64226;DHT22;50545;56.064;26.178;2024-03-23T08:58:30;7.50;94.30
64226;DHT22;50545;56.064;26.178;2024-03-23T09:01:03;7.40;93.50
64226;DHT22;50545;56.064;26.178;2024-03-23T09:03:30;7.40;94.00
64226;DHT22;50545;56.064;26.178;2024-03-23T09:05:57;7.40;93.80
64226;DHT22;50545;56.064;26.178;2024-03-23T09:08:24;7.50;93.40
64226;DHT22;50545;56.064;26.178;2024-03-23T09:10:52;7.50;93.40
64226;DHT22;50545;56.064;26.178;2024-03-23T09:13:19;7.60;92.90
64226;DHT22;50545;56.064;26.178;2024-03-23T09:15:47;7.70;93.00
64226;DHT22;50545;56.064;26.178;2024-03-23T09:18:13;7.80;93.40
64226;DHT22;50545;56.064;26.178;2024-03-23T09:20:40;7.80;91.80
64226;DHT22;50545;56.064;26.178;2024-03-23T09:23:06;8.00;92.40
64226;DHT22;50545;56.064;26.178;2024-03-23T09:25:36;8.00;92.00
64226;DHT22;50545;56.064;26.178;2024-03-23T09:28:03;8.10;92.00
64226;DHT22;50545;56.064;26.178;2024-03-23T09:30:29;8.20;92.10
64226;DHT22;50545;56.064;26.178;2024-03-23T09:32:56;8.30;92.40
64226;DHT22;50545;56.064;26.178;2024-03-23T09:35:22;8.30;92.50
64226;DHT22;50545;56.064;26.178;2024-03-23T09:37:48;8.40;90.70
64226;DHT22;50545;56.064;26.178;2024-03-23T09:40:14;8.30;90.30
64226;DHT22;50545;56.064;26.178;2024-03-23T09:42:42;8.30;90.60
64226;DHT22;50545;56.064;26.178;2024-03-23T09:45:29;8.20;90.60
64226;DHT22;50545;56.064;26.178;2024-03-23T09:47:55;8.20;91.30
64226;DHT22;50545;56.064;26.178;2024-03-23T09:50:22;8.40;90.80
64226;DHT22;50545;56.064;26.178;2024-03-23T09:52:49;8.40;91.20
64226;DHT22;50545;56.064;26.178;2024-03-23T09:55:15;8.60;89.80
64226;DHT22;50545;56.064;26.178;2024-03-23T09:57:42;8.70;87.00
64226;DHT22;50545;56.064;26.178;2024-03-23T10:00:09;8.60;87.90
64226;DHT22;50545;56.064;26.178;2024-03-23T10:02:36;8.70;88.40
64226;DHT22;50545;56.064;26.178;2024-03-23T10:05:03;8.70;84.90
64226;DHT22;50545;56.064;26.178;2024-03-23T10:07:30;8.60;84.90
64226;DHT22;50545;56.064;26.178;2024-03-23T10:09:57;8.50;85.80
64226;DHT22;50545;56.064;26.178;2024-03-23T10:12:24;8.40;85.60
64226;DHT22;50545;56.064;26.178;2024-03-23T10:14:50;8.40;88.10
64226;DHT22;50545;56.064;26.178;2024-03-23T10:19:48;8.40;89.20
64226;DHT22;50545;56.064;26.178;2024-03-23T10:22:19;8.60;90.00
64226;DHT22;50545;56.064;26.178;2024-03-23T10:24:46;8.70;89.30
64226;DHT22;50545;56.064;26.178;2024-03-23T10:27:17;8.90;88.30
64226;DHT22;50545;56.064;26.178;2024-03-23T10:29:47;9.00;86.80
64226;DHT22;50545;56.064;26.178;2024-03-23T10:32:14;9.00;86.90
64226;DHT22;50545;56.064;26.178;2024-03-23T10:34:42;9.00;86.70
64226;DHT22;50545;56.064;26.178;2024-03-23T10:37:08;9.10;87.40
64226;DHT22;50545;56.064;26.178;2024-03-23T10:39:39;9.10;88.00
64226;DHT22;50545;56.064;26.178;2024-03-23T10:42:08;9.10;87.90
64226;DHT22;50545;56.064;26.178;2024-03-23T10:44:34;9.10;85.80
64226;DHT22;50545;56.064;26.178;2024-03-23T10:47:02;9.10;85.10
64226;DHT22;50545;56.064;26.178;2024-03-23T10:49:35;9.00;84.30
64226;DHT22;50545;56.064;26.178;2024-03-23T10:52:05;8.90;86.20
64226;DHT22;50545;56.064;26.178;2024-03-23T10:54:32;9.00;87.10
64226;DHT22;50545;56.064;26.178;2024-03-23T10:57:21;9.00;84.50
64226;DHT22;50545;56.064;26.178;2024-03-23T10:59:49;9.10;85.10
64226;DHT22;50545;56.064;26.178;2024-03-23T11:02:19;9.40;87.00
64226;DHT22;50545;56.064;26.178;2024-03-23T11:04:46;9.40;85.40
64226;DHT22;50545;56.064;26.178;2024-03-23T11:09:46;9.50;83.50
64226;DHT22;50545;56.064;26.178;2024-03-23T11:12:25;9.60;84.60
64226;DHT22;50545;56.064;26.178;2024-03-23T11:15:13;9.60;84.60
64226;DHT22;50545;56.064;26.178;2024-03-23T11:17:40;9.60;85.00
64226;DHT22;50545;56.064;26.178;2024-03-23T11:20:07;9.70;83.00
64226;DHT22;50545;56.064;26.178;2024-03-23T11:22:42;9.80;82.50
64226;DHT22;50545;56.064;26.178;2024-03-23T11:25:18;9.90;81.70
64226;DHT22;50545;56.064;26.178;2024-03-23T11:27:48;9.80;81.80
64226;DHT22;50545;56.064;26.178;2024-03-23T11:30:16;9.90;81.90
64226;DHT22;50545;56.064;26.178;2024-03-23T11:32:44;9.80;80.50
64226;DHT22;50545;56.064;26.178;2024-03-23T11:38:10;9.80;80.30
64226;DHT22;50545;56.064;26.178;2024-03-23T11:40:39;9.80;80.50
64226;DHT22;50545;56.064;26.178;2024-03-23T11:43:07;9.80;79.20
64226;DHT22;50545;56.064;26.178;2024-03-23T11:48:23;9.80;77.90
64226;DHT22;50545;56.064;26.178;2024-03-23T11:50:51;9.80;79.50
64226;DHT22;50545;56.064;26.178;2024-03-23T11:53:21;10.00;80.40
64226;DHT22;50545;56.064;26.178;2024-03-23T11:55:49;10.20;76.60
64226;DHT22;50545;56.064;26.178;2024-03-23T11:58:17;10.20;79.20
64226;DHT22;50545;56.064;26.178;2024-03-23T12:00:57;10.30;76.10
64226;DHT22;50545;56.064;26.178;2024-03-23T12:03:28;10.40;78.60
64226;DHT22;50545;56.064;26.178;2024-03-23T12:06:01;10.50;76.50
64226;DHT22;50545;56.064;26.178;2024-03-23T12:11:16;10.50;76.80
64226;DHT22;50545;56.064;26.178;2024-03-23T12:13:44;10.50;74.00
64226;DHT22;50545;56.064;26.178;2024-03-23T12:16:20;10.50;75.20
64226;DHT22;50545;56.064;26.178;2024-03-23T12:18:50;10.60;75.60
64226;DHT22;50545;56.064;26.178;2024-03-23T12:21:21;10.50;75.10
64226;DHT22;50545;56.064;26.178;2024-03-23T12:23:49;10.30;73.00
64226;DHT22;50545;56.064;26.178;2024-03-23T12:26:16;10.30;75.80
64226;DHT22;50545;56.064;26.178;2024-03-23T12:28:43;10.40;73.80
64226;DHT22;50545;56.064;26.178;2024-03-23T12:31:10;10.40;75.30
64226;DHT22;50545;56.064;26.178;2024-03-23T12:33:36;10.60;75.50
64226;DHT22;50545;56.064;26.178;2024-03-23T12:36:03;10.60;73.40
64226;DHT22;50545;56.064;26.178;2024-03-23T12:38:30;10.60;74.00
64226;DHT22;50545;56.064;26.178;2024-03-23T12:40:56;10.60;72.70
64226;DHT22;50545;56.064;26.178;2024-03-23T12:43:22;10.40;73.20
64226;DHT22;50545;56.064;26.178;2024-03-23T12:45:49;10.20;73.10
64226;DHT22;50545;56.064;26.178;2024-03-23T12:48:16;10.10;74.80
64226;DHT22;50545;56.064;26.178;2024-03-23T12:50:42;10.10;73.20
64226;DHT22;50545;56.064;26.178;2024-03-23T12:53:08;10.10;75.60
64226;DHT22;50545;56.064;26.178;2024-03-23T12:55:35;10.20;73.90
64226;DHT22;50545;56.064;26.178;2024-03-23T12:58:02;10.30;74.40
64226;DHT22;50545;56.064;26.178;2024-03-23T13:00:29;10.30;73.60
64226;DHT22;50545;56.064;26.178;2024-03-23T13:02:55;10.20;73.30
64226;DHT22;50545;56.064;26.178;2024-03-23T13:05:21;10.30;75.00
64226;DHT22;50545;56.064;26.178;2024-03-23T13:07:47;10.30;74.60
64226;DHT22;50545;56.064;26.178;2024-03-23T13:10:14;10.30;70.80
64226;DHT22;50545;56.064;26.178;2024-03-23T13:12:41;10.20;71.70
64226;DHT22;50545;56.064;26.178;2024-03-23T13:15:09;10.20;71.30
64226;DHT22;50545;56.064;26.178;2024-03-23T13:17:35;10.00;72.60
64226;DHT22;50545;56.064;26.178;2024-03-23T13:20:01;9.90;73.20
64226;DHT22;50545;56.064;26.178;2024-03-23T13:22:29;9.90;72.60
64226;DHT22;50545;56.064;26.178;2024-03-23T13:24:56;9.90;72.70
64226;DHT22;50545;56.064;26.178;2024-03-23T13:27:22;9.80;72.70
64226;DHT22;50545;56.064;26.178;2024-03-23T13:29:48;9.80;72.30
64226;DHT22;50545;56.064;26.178;2024-03-23T13:32:16;9.70;72.90
64226;DHT22;50545;56.064;26.178;2024-03-23T13:34:42;9.60;73.20
64226;DHT22;50545;56.064;26.178;2024-03-23T13:37:09;9.60;72.10
64226;DHT22;50545;56.064;26.178;2024-03-23T13:39:35;9.60;71.10
64226;DHT22;50545;56.064;26.178;2024-03-23T13:42:02;9.50;70.60
64226;DHT22;50545;56.064;26.178;2024-03-23T13:44:29;9.50;70.70
64226;DHT22;50545;56.064;26.178;2024-03-23T13:46:55;9.50;71.00
64226;DHT22;50545;56.064;26.178;2024-03-23T13:49:26;9.60;71.70
64226;DHT22;50545;56.064;26.178;2024-03-23T13:51:54;9.60;73.00
64226;DHT22;50545;56.064;26.178;2024-03-23T13:54:21;9.60;70.80
64226;DHT22;50545;56.064;26.178;2024-03-23T13:56:51;9.60;72.30
64226;DHT22;50545;56.064;26.178;2024-03-23T13:59:18;9.60;71.90
64226;DHT22;50545;56.064;26.178;2024-03-23T14:01:45;9.60;71.60
64226;DHT22;50545;56.064;26.178;2024-03-23T14:04:14;9.50;72.20
64226;DHT22;50545;56.064;26.178;2024-03-23T14:06:43;9.50;72.70
64226;DHT22;50545;56.064;26.178;2024-03-23T14:09:15;9.40;72.80
64226;DHT22;50545;56.064;26.178;2024-03-23T14:11:47;9.40;72.40
64226;DHT22;50545;56.064;26.178;2024-03-23T14:14:13;9.40;72.20
64226;DHT22;50545;56.064;26.178;2024-03-23T14:16:45;9.40;72.10
64226;DHT22;50545;56.064;26.178;2024-03-23T14:19:11;9.40;73.40
64226;DHT22;50545;56.064;26.178;2024-03-23T14:21:38;9.30;73.30
64226;DHT22;50545;56.064;26.178;2024-03-23T14:24:04;9.40;74.30
64226;DHT22;50545;56.064;26.178;2024-03-23T14:26:31;9.30;73.20
64226;DHT22;50545;56.064;26.178;2024-03-23T14:28:57;9.30;75.00
64226;DHT22;50545;56.064;26.178;2024-03-23T14:31:23;9.30;74.10
64226;DHT22;50545;56.064;26.178;2024-03-23T14:33:51;9.30;76.40
64226;DHT22;50545;56.064;26.178;2024-03-23T14:36:17;9.30;77.10
64226;DHT22;50545;56.064;26.178;2024-03-23T14:38:50;9.30;78.00
64226;DHT22;50545;56.064;26.178;2024-03-23T14:41:16;9.30;78.40
64226;DHT22;50545;56.064;26.178;2024-03-23T14:43:42;9.30;79.20
64226;DHT22;50545;56.064;26.178;2024-03-23T14:46:14;9.30;79.60
64226;DHT22;50545;56.064;26.178;2024-03-23T14:48:43;9.30;79.90
64226;DHT22;50545;56.064;26.178;2024-03-23T14:51:10;9.20;79.80
64226;DHT22;50545;56.064;26.178;2024-03-23T14:53:39;9.20;80.50
64226;DHT22;50545;56.064;26.178;2024-03-23T14:56:07;9.20;81.70
64226;DHT22;50545;56.064;26.178;2024-03-23T14:58:33;9.10;81.90
64226;DHT22;50545;56.064;26.178;2024-03-23T15:01:03;9.10;82.60
64226;DHT22;50545;56.064;26.178;2024-03-23T15:03:30;9.00;83.40
64226;DHT22;50545;56.064;26.178;2024-03-23T15:05:58;9.00;83.30
64226;DHT22;50545;56.064;26.178;2024-03-23T15:08:28;8.90;83.20
64226;DHT22;50545;56.064;26.178;2024-03-23T15:10:59;8.80;83.30
64226;DHT22;50545;56.064;26.178;2024-03-23T15:13:25;8.80;83.40
64226;DHT22;50545;56.064;26.178;2024-03-23T15:15:51;8.80;84.30
64226;DHT22;50545;56.064;26.178;2024-03-23T15:18:18;8.70;84.30
64226;DHT22;50545;56.064;26.178;2024-03-23T15:20:57;8.70;83.80
64226;DHT22;50545;56.064;26.178;2024-03-23T15:23:24;8.70;84.50
64226;DHT22;50545;56.064;26.178;2024-03-23T15:25:57;8.60;84.50
64226;DHT22;50545;56.064;26.178;2024-03-23T15:28:25;8.70;85.20
64226;DHT22;50545;56.064;26.178;2024-03-23T15:31:08;8.60;84.90
64226;DHT22;50545;56.064;26.178;2024-03-23T15:33:37;8.60;84.70
64226;DHT22;50545;56.064;26.178;2024-03-23T15:36:05;8.50;85.40
64226;DHT22;50545;56.064;26.178;2024-03-23T15:38:32;8.50;85.40
64226;DHT22;50545;56.064;26.178;2024-03-23T15:40:59;8.50;85.60
64226;DHT22;50545;56.064;26.178;2024-03-23T15:43:25;8.50;86.30
64226;DHT22;50545;56.064;26.178;2024-03-23T15:46:03;8.50;86.20
64226;DHT22;50545;56.064;26.178;2024-03-23T15:48:30;8.40;86.30
64226;DHT22;50545;56.064;26.178;2024-03-23T15:50:59;8.40;87.00
64226;DHT22;50545;56.064;26.178;2024-03-23T15:53:26;8.40;87.20
64226;DHT22;50545;56.064;26.178;2024-03-23T15:55:57;8.30;87.70
64226;DHT22;50545;56.064;26.178;2024-03-23T15:58:24;8.30;87.80
64226;DHT22;50545;56.064;26.178;2024-03-23T16:01:04;8.30;87.70
64226;DHT22;50545;56.064;26.178;2024-03-23T16:03:32;8.20;88.40
64226;DHT22;50545;56.064;26.178;2024-03-23T16:06:00;8.10;88.10
64226;DHT22;50545;56.064;26.178;2024-03-23T16:08:27;8.10;88.40
64226;DHT22;50545;56.064;26.178;2024-03-23T16:11:02;8.00;89.00
64226;DHT22;50545;56.064;26.178;2024-03-23T16:13:28;7.90;89.20
64226;DHT22;50545;56.064;26.178;2024-03-23T16:15:59;7.90;89.40
64226;DHT22;50545;56.064;26.178;2024-03-23T16:18:27;7.80;90.00
64226;DHT22;50545;56.064;26.178;2024-03-23T16:20:56;7.80;90.10
64226;DHT22;50545;56.064;26.178;2024-03-23T16:23:23;7.70;90.20
64226;DHT22;50545;56.064;26.178;2024-03-23T16:25:50;7.70;90.50
64226;DHT22;50545;56.064;26.178;2024-03-23T16:28:30;7.60;90.50
64226;DHT22;50545;56.064;26.178;2024-03-23T16:31:09;7.60;90.90
64226;DHT22;50545;56.064;26.178;2024-03-23T16:33:37;7.50;90.90
64226;DHT22;50545;56.064;26.178;2024-03-23T16:36:08;7.50;91.00
64226;DHT22;50545;56.064;26.178;2024-03-23T16:38:41;7.50;91.10
64226;DHT22;50545;56.064;26.178;2024-03-23T16:41:09;7.40;91.20
64226;DHT22;50545;56.064;26.178;2024-03-23T16:43:37;7.40;91.40